Airfield :
LOGIN :

Register | Disclaimer

   EN    FR    IT 

 










Legend :    VFR   Marginal VFR   IFR   Intensive IFR   Very Intensive IFR
Visi :
Ceiling :
>= 8 km
>= 3000ft
5 to 8 km
1000 to 3000 ft
1500m to 5 km
500 to 1000 ft
800 to 1500m
200 to 500 ft
< 800m
< 200 ft
Symbols :   Thunderstorms  Fog  Heavy snow  Heavy precipitations  Wind > 20 kt
SIGMETs :     Misc.  Thunderstorms  Icing  Turbulence  Mountain Waves  Volcanic Ashes






- Airport Elevation : 1682 ft
- IATA code : VIT


LEVT - Vitoria Gasteiz

CURRENT METAR :
  • 280500Z 36012KT 9999 FEW026 BKN036 06/02 Q1023

EXPIRED METARs :
  • 280430Z 02006KT 340V050 9999 FEW020 BKN034 06/02 Q1023
  • 280400Z 35010KT 320V030 9999 BKN030 06/03 Q1023
  • 280330Z 36012G24KT 320V040 9999 FEW024 BKN033 06/03 Q1023
  • 280300Z 01007KT 340V050 9999 -RA SCT024 BKN031 06/03 Q1024
  • 280230Z 36010KT 9999 FEW024 BKN038 06/03 Q1023
  • 280200Z 35013KT 320V020 9999 FEW024 BKN028 06/03 Q1023
  • 280130Z 34012KT 300V360 9999 FEW025 BKN031 06/03 Q1023
  • 280100Z 35013G23KT 9999 BKN029 06/03 Q1023
  • 280030Z 34013KT 310V010 9999 FEW027 BKN030 06/03 Q1024

TAF TAF LEVT
Valid from the 28 at 00:00 until the 29 at 00:00 UTC


272300Z 2800/2824 32012KT 9999 BKN020 TX10/2812Z TN04/2824Z
PROB40
TEMPO 2812/2824 3000 RA BR BKN010
PROB30
TEMPO 2800/2810 32015G25KT



MET'MAP, your aeronautical weather chart ! - Copyright ORBIFLY December 2007 - Disclaimer

ORBIFLY MET'MAP TEAM :

Programming & Development : Alexandra Zaïnal
Original concept : Baudouin d'Aumeries
Technical & hardware support : Manuel Goepfert
Assistance : Marc-Olivier Méhu




SOURCES & CREDITS :

   NOAA